Time;durP1;ratioP1;P1;durP2;ratioP2;P2;SDS_P1;SDS_P2;PMS_P1;PMS_P2;Temp;Humidity;BMP_temperature;BMP_pressure;BME280_temperature;BME280_humidity;BME280_pressure;Samples;Min_cycle;Max_cycle;Signal;HPM_P1;HPM_P2
2022/09/04 00:01:37;;;;;;;3.38;1.25;;;17.00;99.90;;;;;;4982989;28;20053;-78
2022/09/04 00:04:06;;;;;;;4.82;1.00;;;16.90;99.90;;;;;;4997447;28;20046;-76
2022/09/04 00:06:41;;;;;;;1.90;1.00;;;16.90;99.90;;;;;;4993189;28;20449;-79
2022/09/04 00:09:36;;;;;;;3.75;1.50;;;16.90;99.90;;;;;;4987890;28;20433;-76
2022/09/04 00:12:07;;;;;;;2.40;1.40;;;16.90;99.90;;;;;;4988912;28;20425;-77
2022/09/04 00:14:38;;;;;;;3.00;1.02;;;16.80;99.90;;;;;;4993022;28;20046;-79
2022/09/04 00:17:13;;;;;;;2.83;1.75;;;16.80;99.90;;;;;;4985958;28;20189;-74
2022/09/04 00:19:42;;;;;;;3.95;1.40;;;16.80;99.90;;;;;;4988305;28;20517;-78
2022/09/04 00:22:33;;;;;;;5.72;1.92;;;16.80;99.90;;;;;;4986231;28;20057;-78
2022/09/04 00:25:17;;;;;;;1.58;0.98;;;16.80;99.90;;;;;;4987252;28;20038;-78
2022/09/04 00:27:49;;;;;;;1.95;0.93;;;16.70;99.90;;;;;;4968502;28;20042;-76
2022/09/04 00:30:20;;;;;;;2.92;1.30;;;16.70;99.90;;;;;;4986409;28;20382;-76
2022/09/04 00:33:09;;;;;;;1.95;1.00;;;16.70;99.90;;;;;;4988252;28;20089;-77
2022/09/04 00:35:45;;;;;;;3.25;1.10;;;16.60;99.90;;;;;;4984649;28;20042;-76
2022/09/04 00:38:27;;;;;;;6.15;1.05;;;16.60;99.90;;;;;;4989541;28;20034;-77
2022/09/04 00:41:00;;;;;;;5.50;1.30;;;16.60;99.90;;;;;;4988697;28;20046;-78
2022/09/04 00:43:59;;;;;;;7.28;1.20;;;16.60;99.90;;;;;;4988334;28;20061;-77
2022/09/04 00:46:30;;;;;;;1.95;1.08;;;16.50;99.90;;;;;;4985183;28;20780;-77
2022/09/04 00:49:02;;;;;;;2.65;1.70;;;16.50;99.90;;;;;;4987638;28;20050;-77
2022/09/04 00:51:50;;;;;;;1.67;0.98;;;16.50;99.90;;;;;;4988304;28;20050;-77
2022/09/04 00:54:45;;;;;;;2.13;1.85;;;16.50;99.90;;;;;;4985716;28;20042;-77
2022/09/04 00:57:48;;;;;;;4.85;1.23;;;16.40;99.90;;;;;;4983630;28;20046;-76
2022/09/04 01:00:19;;;;;;;3.42;1.55;;;16.40;99.90;;;;;;4975814;28;20035;-76
2022/09/04 01:02:47;;;;;;;2.85;1.10;;;16.40;99.90;;;;;;4987454;28;20096;-77
2022/09/04 01:05:35;;;;;;;27.08;2.28;;;16.30;99.90;;;;;;4984952;28;20444;-77
2022/09/04 01:08:15;;;;;;;3.85;1.33;;;16.40;99.90;;;;;;4989871;28;20173;-78
2022/09/04 01:10:43;;;;;;;;;;;16.30;99.90;;;;;;4989743;28;20042;-78
2022/09/04 01:13:23;;;;;;;3.83;1.98;;;16.30;99.90;;;;;;4986765;28;20297;-77
2022/09/04 01:16:00;;;;;;;2.78;1.77;;;16.20;99.90;;;;;;4981247;28;20034;-78
2022/09/04 01:18:33;;;;;;;2.33;1.00;;;16.20;99.90;;;;;;4985587;28;20057;-77
2022/09/04 01:21:08;;;;;;;5.18;1.92;;;16.20;99.90;;;;;;4993073;28;20050;-77
2022/09/04 01:23:39;;;;;;;2.35;1.23;;;16.10;99.90;;;;;;4987262;28;20047;-76
2022/09/04 01:26:29;;;;;;;10.30;2.05;;;16.10;99.90;;;;;;4984319;28;20401;-76
2022/09/04 01:29:14;;;;;;;4.90;1.33;;;16.10;99.90;;;;;;4983103;28;20417;-78
2022/09/04 01:31:46;;;;;;;1.77;1.10;;;16.00;99.90;;;;;;4987801;28;20038;-77
2022/09/04 01:34:44;;;;;;;3.38;1.40;;;16.00;99.90;;;;;;4983638;28;20030;-76
2022/09/04 01:37:46;;;;;;;2.78;1.10;;;15.90;99.90;;;;;;4983974;28;20176;-77
2022/09/04 01:40:39;;;;;;;3.33;1.50;;;15.90;99.90;;;;;;4975317;28;20593;-78
2022/09/04 01:43:10;;;;;;;5.03;1.35;;;15.90;99.90;;;;;;4987561;28;20046;-74
2022/09/04 01:45:58;;;;;;;3.20;1.50;;;15.90;99.90;;;;;;4985468;28;20042;-76
2022/09/04 01:48:52;;;;;;;5.40;1.30;;;15.90;99.90;;;;;;4986227;28;20468;-76
2022/09/04 01:54:55;;;;;;;4.57;1.48;;;15.90;99.90;;;;;;5014750;28;20404;-68
2022/09/04 01:57:39;;;;;;;3.58;1.35;;;15.80;99.90;;;;;;5013784;28;20049;-68
2022/09/04 02:00:09;;;;;;;3.88;1.20;;;15.80;99.90;;;;;;5023483;28;20057;-69
2022/09/04 02:03:09;;;;;;;4.57;1.77;;;15.80;99.90;;;;;;5025310;28;20049;-69
2022/09/04 02:06:03;;;;;;;1.80;1.45;;;15.80;99.90;;;;;;5025618;28;20089;-71
2022/09/04 02:08:50;;;;;;;8.27;1.90;;;15.70;99.90;;;;;;5041617;28;20049;-68
2022/09/04 02:11:18;;;;;;;4.25;1.40;;;15.70;99.90;;;;;;5020903;28;20038;-69
2022/09/04 02:14:14;;;;;;;2.50;1.40;;;15.70;99.90;;;;;;5018157;28;20561;-69
2022/09/04 02:17:06;;;;;;;3.53;1.20;;;15.60;99.90;;;;;;5024016;28;20050;-69
2022/09/04 02:20:01;;;;;;;10.75;2.03;;;15.60;99.90;;;;;;5040755;28;20053;-68
2022/09/04 02:22:48;;;;;;;5.03;2.03;;;15.60;99.90;;;;;;5039838;28;20095;-68
2022/09/04 02:25:22;;;;;;;1.35;1.00;;;15.50;99.90;;;;;;5025408;28;20072;-69
2022/09/04 02:28:05;;;;;;;5.65;1.23;;;15.50;99.90;;;;;;5025195;28;20052;-68
2022/09/04 02:30:42;;;;;;;2.97;1.98;;;15.50;99.90;;;;;;5008074;28;20052;-68
2022/09/04 02:33:19;;;;;;;3.40;1.60;;;15.50;99.90;;;;;;5021886;28;20388;-68
2022/09/04 02:36:08;;;;;;;1.60;1.17;;;15.40;99.90;;;;;;5019926;28;20137;-68
2022/09/04 02:38:45;;;;;;;1.55;1.20;;;15.30;99.90;;;;;;5025641;28;20531;-68
2022/09/04 02:41:26;;;;;;;5.07;2.00;;;15.30;99.90;;;;;;5024927;28;20053;-68
2022/09/04 02:44:12;;;;;;;4.97;2.00;;;15.30;99.90;;;;;;5022971;28;20087;-67
2022/09/04 02:47:03;;;;;;;3.28;1.70;;;15.20;99.90;;;;;;5038901;28;20064;-69
2022/09/04 02:49:55;;;;;;;4.63;2.22;;;15.30;99.90;;;;;;5025483;28;20438;-68
2022/09/04 02:52:45;;;;;;;5.68;1.52;;;15.30;99.90;;;;;;5005320;28;20045;-69
2022/09/04 02:55:13;;;;;;;3.38;2.17;;;15.30;99.90;;;;;;5025094;28;20519;-68
2022/09/04 02:57:58;;;;;;;3.67;1.88;;;15.30;99.90;;;;;;5006375;28;20067;-69
2022/09/04 03:00:58;;;;;;;3.25;1.80;;;15.10;99.90;;;;;;5023185;28;20173;-68
2022/09/04 03:03:49;;;;;;;5.22;1.90;;;15.00;99.90;;;;;;5015608;28;20400;-68
2022/09/04 03:06:47;;;;;;;15.75;2.75;;;15.00;99.90;;;;;;5024459;28;20037;-68
2022/09/04 03:09:34;;;;;;;2.30;1.67;;;15.00;99.90;;;;;;4989962;28;20049;-67
2022/09/04 03:12:36;;;;;;;4.43;2.17;;;15.00;99.90;;;;;;5011318;28;20388;-67
2022/09/04 03:15:26;;;;;;;9.68;2.10;;;14.90;99.90;;;;;;5022316;28;20053;-68
2022/09/04 03:18:03;;;;;;;18.83;2.28;;;14.80;99.90;;;;;;5014181;28;20132;-69
2022/09/04 03:20:35;;;;;;;4.22;1.73;;;14.80;99.90;;;;;;5025726;28;20052;-68
2022/09/04 03:23:28;;;;;;;2.80;1.40;;;14.70;99.90;;;;;;5025270;28;20041;-68
2022/09/04 03:25:59;;;;;;;3.35;1.17;;;14.70;99.90;;;;;;5015709;28;20045;-68
2022/09/04 03:28:49;;;;;;;1.92;1.40;;;14.70;99.90;;;;;;5038971;28;20136;-68
2022/09/04 03:31:49;;;;;;;2.17;1.03;;;14.70;99.90;;;;;;5023254;28;20080;-68
2022/09/04 03:34:25;;;;;;;13.68;2.33;;;14.70;99.90;;;;;;5021439;28;20044;-68
2022/09/04 03:36:53;;;;;;;9.43;2.65;;;14.70;99.90;;;;;;5039607;28;20128;-69
2022/09/04 03:39:32;;;;;;;5.38;1.85;;;14.60;99.90;;;;;;5022031;28;20057;-69
2022/09/04 03:42:15;;;;;;;4.13;1.77;;;14.60;99.90;;;;;;5023665;28;20045;-68
2022/09/04 03:44:53;;;;;;;6.57;1.50;;;14.60;99.90;;;;;;5006928;28;20041;-68
2022/09/04 03:47:45;;;;;;;5.35;1.77;;;14.60;99.90;;;;;;5037683;28;20372;-68
2022/09/04 03:50:30;;;;;;;3.17;1.73;;;14.60;99.90;;;;;;5005502;28;20042;-69
2022/09/04 03:53:02;;;;;;;33.25;2.40;;;14.50;99.90;;;;;;5011703;28;20064;-67
2022/09/04 03:55:58;;;;;;;3.33;1.33;;;14.60;99.90;;;;;;5024509;28;20041;-68
2022/09/04 03:58:39;;;;;;;3.45;1.58;;;14.60;99.90;;;;;;4980034;28;20039;-68
2022/09/04 04:01:33;;;;;;;2.70;1.40;;;14.70;99.90;;;;;;5021940;28;20068;-68
2022/09/04 04:04:34;;;;;;;3.80;1.92;;;14.60;99.90;;;;;;5019029;28;20053;-68
2022/09/04 04:07:15;;;;;;;4.75;1.75;;;14.60;99.90;;;;;;5020178;28;20045;-68
2022/09/04 04:10:08;;;;;;;3.80;1.85;;;14.60;99.90;;;;;;5037923;28;20050;-67
2022/09/04 04:12:59;;;;;;;3.75;1.60;;;14.70;99.90;;;;;;5021305;28;20054;-68
2022/09/04 04:16:03;;;;;;;2.30;1.40;;;14.70;99.90;;;;;;5007815;28;20045;-67
2022/09/04 04:18:45;;;;;;;7.80;2.35;;;14.70;99.90;;;;;;4970371;28;20114;-67
2022/09/04 04:21:11;;;;;;;2.80;2.00;;;14.70;99.90;;;;;;4947303;28;20085;-68
2022/09/04 04:23:45;;;;;;;6.45;1.67;;;14.60;99.90;;;;;;4995994;28;20065;-69
2022/09/04 04:26:28;;;;;;;3.58;1.90;;;14.60;99.90;;;;;;5024258;28;20049;-68
2022/09/04 04:29:36;;;;;;;5.53;2.08;;;14.60;99.90;;;;;;5037827;28;20088;-68
2022/09/04 04:32:31;;;;;;;2.13;1.35;;;14.60;99.90;;;;;;5021305;28;20056;-68
2022/09/04 04:35:36;;;;;;;3.97;1.70;;;14.70;99.90;;;;;;5022117;28;20183;-68
2022/09/04 04:38:19;;;;;;;3.63;1.92;;;14.70;99.90;;;;;;5015004;28;20100;-68
2022/09/04 04:41:01;;;;;;;3.40;1.83;;;14.70;99.90;;;;;;5005229;28;20077;-67
2022/09/04 04:43:48;;;;;;;2.35;1.65;;;14.70;99.90;;;;;;5021217;28;20045;-68
2022/09/04 04:46:38;;;;;;;3.85;2.05;;;14.80;99.90;;;;;;5021873;28;20072;-67
2022/09/04 04:49:27;;;;;;;;;;;14.80;99.90;;;;;;5025926;28;20041;-69
2022/09/04 04:52:20;;;;;;;3.90;2.30;;;14.70;99.90;;;;;;4972250;28;20358;-68
2022/09/04 04:55:12;;;;;;;3.70;2.25;;;14.80;99.90;;;;;;5015494;28;20080;-68
2022/09/04 04:57:52;;;;;;;6.57;2.70;;;14.80;99.90;;;;;;5025622;28;20140;-67
2022/09/04 05:00:35;;;;;;;16.30;1.88;;;14.80;99.90;;;;;;5027220;28;20049;-67
2022/09/04 05:03:46;;;;;;;3.33;1.20;;;14.70;99.90;;;;;;5023389;28;20046;-69
2022/09/04 05:06:42;;;;;;;6.03;2.03;;;14.70;99.90;;;;;;5022802;28;20180;-69
2022/09/04 05:09:21;;;;;;;17.02;2.95;;;14.70;99.90;;;;;;5016933;28;20052;-68
2022/09/04 05:12:03;;;;;;;2.75;1.30;;;14.70;99.90;;;;;;5024840;28;20045;-68
2022/09/04 05:14:32;;;;;;;9.50;2.80;;;14.70;99.90;;;;;;5039582;28;20042;-68
2022/09/04 05:17:00;;;;;;;10.65;2.25;;;14.70;99.90;;;;;;5026077;28;20088;-69
2022/09/04 05:20:10;;;;;;;2.35;1.73;;;14.70;99.90;;;;;;5014411;28;20033;-68
2022/09/04 05:22:41;;;;;;;;;;;14.70;99.90;;;;;;5013573;28;20154;-67
2022/09/04 05:25:35;;;;;;;3.08;1.60;;;14.70;99.90;;;;;;5026753;28;19928;-68
2022/09/04 05:28:11;;;;;;;6.70;2.03;;;14.80;99.90;;;;;;5025061;28;20069;-68
2022/09/04 05:30:56;;;;;;;2.38;1.33;;;14.70;99.90;;;;;;5026830;28;20403;-68
2022/09/04 05:33:54;;;;;;;3.35;1.80;;;14.80;99.90;;;;;;5024956;28;20041;-68
2022/09/04 05:36:32;;;;;;;6.80;1.60;;;14.90;99.90;;;;;;5011927;28;20037;-67
2022/09/04 05:39:29;;;;;;;4.97;2.50;;;14.90;99.90;;;;;;5025717;28;20107;-69
2022/09/04 05:42:17;;;;;;;5.00;2.20;;;15.00;99.90;;;;;;5025193;28;20115;-69
2022/09/04 05:45:04;;;;;;;5.78;2.05;;;15.10;99.90;;;;;;5023645;28;20052;-68
2022/09/04 05:47:44;;;;;;;5.88;1.60;;;15.10;99.90;;;;;;5021171;28;20156;-67
2022/09/04 05:50:41;;;;;;;8.23;3.33;;;15.20;99.90;;;;;;5040177;28;20041;-69
2022/09/04 05:53:30;;;;;;;2.58;2.22;;;15.20;99.90;;;;;;5024285;28;20049;-69
2022/09/04 05:56:26;;;;;;;5.70;1.58;;;15.20;99.90;;;;;;5024543;28;20075;-69
2022/09/04 05:59:07;;;;;;;3.08;1.83;;;15.20;99.90;;;;;;5014194;28;20093;-67
2022/09/04 06:01:52;;;;;;;4.43;1.95;;;15.30;99.90;;;;;;5025760;28;20049;-67
2022/09/04 06:04:27;;;;;;;2.45;1.70;;;15.30;99.90;;;;;;5023272;28;20600;-68
2022/09/04 06:07:10;;;;;;;9.05;3.17;;;15.40;99.90;;;;;;5024992;28;20049;-67
2022/09/04 06:10:08;;;;;;;4.32;2.10;;;15.40;99.90;;;;;;5023580;28;20045;-67
2022/09/04 06:13:04;;;;;;;1.85;1.42;;;15.40;99.90;;;;;;5020029;28;20083;-68
2022/09/04 06:15:49;;;;;;;7.05;1.92;;;15.50;99.90;;;;;;5029991;28;20049;-68
2022/09/04 06:18:27;;;;;;;3.20;1.40;;;15.60;99.90;;;;;;5022905;28;20052;-67
2022/09/04 06:21:24;;;;;;;4.10;2.45;;;15.60;99.90;;;;;;5025099;28;20096;-67
2022/09/04 06:23:55;;;;;;;2.17;1.30;;;15.70;99.90;;;;;;5023898;28;20049;-68
2022/09/04 06:26:31;;;;;;;5.63;2.58;;;15.70;99.90;;;;;;5024303;28;20065;-68
2022/09/04 06:29:27;;;;;;;25.65;2.45;;;15.70;99.90;;;;;;5024929;28;20103;-67
2022/09/04 06:32:05;;;;;;;8.38;2.03;;;15.70;99.90;;;;;;5004174;28;20072;-67
2022/09/04 06:34:50;;;;;;;3.88;2.28;;;15.80;99.90;;;;;;5021127;28;20073;-67
2022/09/04 06:37:30;;;;;;;2.80;1.73;;;15.90;99.90;;;;;;5025299;28;20423;-67
2022/09/04 06:40:13;;;;;;;2.63;1.77;;;15.90;99.90;;;;;;5007791;28;20045;-67
2022/09/04 06:43:05;;;;;;;5.53;1.65;;;16.00;99.90;;;;;;5004739;28;20065;-68
2022/09/04 06:45:43;;;;;;;3.35;2.33;;;16.00;99.90;;;;;;5022731;28;20103;-67
2022/09/04 06:48:40;;;;;;;10.68;3.08;;;16.10;99.90;;;;;;5021966;28;20049;-68
2022/09/04 06:51:17;;;;;;;5.53;1.98;;;16.20;99.90;;;;;;5024174;28;20041;-68
2022/09/04 06:54:10;;;;;;;3.10;1.77;;;16.30;99.90;;;;;;5024315;28;20065;-68
2022/09/04 06:56:57;;;;;;;4.55;2.33;;;16.40;99.90;;;;;;5021415;28;20141;-70
2022/09/04 06:59:31;;;;;;;3.63;1.80;;;16.60;99.90;;;;;;5024592;28;20519;-69
2022/09/04 07:02:39;;;;;;;2.97;1.90;;;17.40;99.90;;;;;;5023045;28;20447;-68
2022/09/04 07:05:42;;;;;;;6.95;1.92;;;17.90;99.90;;;;;;5013665;28;20128;-72
2022/09/04 07:08:20;;;;;;;2.65;1.88;;;17.20;99.90;;;;;;5022647;28;20041;-69
2022/09/04 07:11:03;;;;;;;4.13;1.83;;;17.00;99.90;;;;;;5021126;28;20151;-69
2022/09/04 07:13:48;;;;;;;2.65;1.65;;;16.90;99.90;;;;;;5024771;28;20496;-69
2022/09/04 07:16:50;;;;;;;4.60;1.80;;;17.00;99.90;;;;;;5022936;28;20124;-69
2022/09/04 07:19:21;;;;;;;5.25;1.85;;;17.10;99.90;;;;;;5025006;28;20710;-69
2022/09/04 07:22:26;;;;;;;2.95;1.85;;;17.30;99.90;;;;;;5025254;28;20516;-68
2022/09/04 07:25:41;;;;;;;3.42;1.27;;;17.40;99.90;;;;;;4986381;28;20062;-69
2022/09/04 07:28:13;;;;;;;8.93;2.08;;;17.60;99.90;;;;;;5021332;28;20462;-69
2022/09/04 07:31:10;;;;;;;3.75;2.10;;;17.80;99.90;;;;;;5023624;28;20128;-70
2022/09/04 07:33:43;;;;;;;2.67;1.45;;;18.00;99.90;;;;;;5023418;28;20085;-70
2022/09/04 07:36:20;;;;;;;5.82;2.65;;;18.10;99.90;;;;;;5024302;28;20029;-69
2022/09/04 07:38:59;;;;;;;5.20;2.25;;;18.30;99.90;;;;;;5022177;28;20488;-70
2022/09/04 07:41:43;;;;;;;3.72;1.98;;;18.50;99.90;;;;;;5023889;28;20248;-68
2022/09/04 07:44:28;;;;;;;5.20;2.00;;;18.50;99.90;;;;;;5022380;28;20049;-68
2022/09/04 07:47:17;;;;;;;3.08;1.65;;;18.60;99.90;;;;;;5021652;28;20063;-69
2022/09/04 07:50:09;;;;;;;3.83;1.58;;;18.60;99.90;;;;;;5004644;28;20056;-68
2022/09/04 07:52:55;;;;;;;4.05;1.67;;;18.60;99.90;;;;;;5020806;28;20058;-69
2022/09/04 07:55:45;;;;;;;6.03;1.75;;;18.70;99.90;;;;;;5005682;28;20412;-71
2022/09/04 07:58:11;;;;;;;;;;;18.70;99.90;;;;;;5013327;28;20060;-68
2022/09/04 08:00:56;;;;;;;5.28;1.55;;;18.90;99.90;;;;;;5024486;28;19921;-70
2022/09/04 08:03:50;;;;;;;3.78;1.83;;;19.10;99.90;;;;;;5008528;28;20099;-70
2022/09/04 08:06:38;;;;;;;5.05;2.15;;;19.20;99.90;;;;;;5005744;28;20118;-70
2022/09/04 08:09:25;;;;;;;4.38;1.40;;;19.20;99.90;;;;;;5022409;28;20042;-70
2022/09/04 08:12:03;;;;;;;8.32;2.28;;;19.30;99.90;;;;;;5022633;28;20197;-70
2022/09/04 08:14:52;;;;;;;8.32;2.40;;;19.40;99.90;;;;;;5034404;28;20097;-69
2022/09/04 08:17:47;;;;;;;7.10;1.60;;;19.50;99.90;;;;;;5038424;28;20037;-71
2022/09/04 08:20:21;;;;;;;2.38;2.08;;;19.50;99.90;;;;;;5022423;28;20091;-71
2022/09/04 08:23:00;;;;;;;3.95;1.63;;;19.60;99.90;;;;;;5026227;28;20060;-70
2022/09/04 08:25:53;;;;;;;2.53;2.10;;;19.80;99.90;;;;;;5026339;28;20041;-70
2022/09/04 08:29:05;;;;;;;5.00;1.65;;;19.80;99.90;;;;;;5025432;28;20128;-71
2022/09/04 08:31:42;;;;;;;3.50;1.50;;;19.80;99.90;;;;;;5013270;28;20060;-68
2022/09/04 08:34:26;;;;;;;6.38;1.90;;;20.00;99.90;;;;;;5025822;28;20071;-70
2022/09/04 08:37:11;;;;;;;3.90;2.20;;;20.10;99.90;;;;;;5028524;28;20041;-73
2022/09/04 08:39:54;;;;;;;4.65;2.15;;;20.20;99.90;;;;;;5026880;28;20052;-70
2022/09/04 08:42:34;;;;;;;4.03;1.88;;;20.30;99.90;;;;;;5025685;28;20049;-69
2022/09/04 08:45:55;;;;;;;6.80;2.75;;;20.40;99.90;;;;;;5025645;28;20048;-69
2022/09/04 08:48:41;;;;;;;2.00;1.40;;;20.60;99.90;;;;;;5014103;28;20041;-70
2022/09/04 08:51:28;;;;;;;4.95;1.20;;;20.50;99.90;;;;;;5024549;28;20041;-70
2022/09/04 08:54:19;;;;;;;1.95;1.35;;;20.80;99.90;;;;;;5025325;28;20065;-69
2022/09/04 08:57:15;;;;;;;3.85;1.42;;;20.90;99.90;;;;;;5008577;28;20054;-69
2022/09/04 08:59:59;;;;;;;3.55;1.80;;;21.00;99.90;;;;;;5023891;28;20050;-69
2022/09/04 09:03:00;;;;;;;5.93;2.30;;;20.90;99.90;;;;;;5026056;28;20559;-70
2022/09/04 09:05:44;;;;;;;2.22;1.73;;;21.10;99.90;;;;;;5024810;28;20506;-69
2022/09/04 09:08:43;;;;;;;4.38;1.60;;;21.30;99.90;;;;;;5007383;28;20037;-70
2022/09/04 09:11:32;;;;;;;6.20;1.55;;;21.60;99.90;;;;;;5025762;28;20037;-69
2022/09/04 09:14:15;;;;;;;2.92;1.35;;;21.60;99.90;;;;;;5025670;28;20645;-70
2022/09/04 09:17:28;;;;;;;2.83;1.17;;;21.60;99.90;;;;;;5024804;28;20049;-70
2022/09/04 09:20:17;;;;;;;9.20;1.67;;;21.50;99.90;;;;;;4949453;28;20055;-70
2022/09/04 09:23:15;;;;;;;4.93;1.63;;;21.60;99.90;;;;;;4965651;28;20121;-69
2022/09/04 09:25:54;;;;;;;3.72;0.98;;;21.70;99.90;;;;;;4983481;28;20416;-70
2022/09/04 09:28:53;;;;;;;1.95;1.38;;;22.00;99.90;;;;;;5011256;28;20604;-69
2022/09/04 09:31:41;;;;;;;3.28;0.98;;;22.10;99.90;;;;;;5025238;28;20049;-70
2022/09/04 09:35:01;;;;;;;2.28;1.30;;;22.30;99.90;;;;;;5039279;28;20037;-70
2022/09/04 09:37:44;;;;;;;3.35;1.40;;;22.30;99.90;;;;;;5020311;28;20062;-69
2022/09/04 09:40:55;;;;;;;2.35;1.15;;;22.20;99.90;;;;;;5022232;28;20042;-69
2022/09/04 09:43:20;;;;;;;1.50;1.20;;;22.40;99.90;;;;;;4972642;28;20049;-68
2022/09/04 09:46:36;;;;;;;3.13;1.48;;;22.70;99.90;;;;;;5025038;28;20073;-67
2022/09/04 09:49:08;;;;;;;2.97;1.40;;;22.70;99.90;;;;;;5016954;28;20065;-68
2022/09/04 09:51:56;;;;;;;4.50;1.83;;;22.90;99.90;;;;;;5031466;28;20034;-67
2022/09/04 09:54:54;;;;;;;1.42;0.90;;;22.80;99.90;;;;;;5025471;28;20140;-67
2022/09/04 09:57:37;;;;;;;4.22;1.30;;;23.00;99.90;;;;;;5017791;28;20061;-68
2022/09/04 10:00:17;;;;;;;5.28;1.00;;;23.00;99.90;;;;;;5003700;28;20045;-69
2022/09/04 10:03:01;;;;;;;2.95;1.73;;;23.10;99.90;;;;;;5020358;28;20562;-69
2022/09/04 10:05:57;;;;;;;2.50;1.25;;;23.10;99.90;;;;;;5025063;28;20120;-69
2022/09/04 10:08:37;;;;;;;3.58;1.20;;;23.20;99.90;;;;;;5038352;28;20179;-68
2022/09/04 10:11:40;;;;;;;1.55;0.98;;;23.40;99.90;;;;;;5023625;28;20104;-68
2022/09/04 10:14:45;;;;;;;6.25;0.98;;;23.20;99.90;;;;;;5024755;28;20083;-69
2022/09/04 10:17:49;;;;;;;4.72;1.83;;;23.40;99.90;;;;;;5022396;28;20109;-68
2022/09/04 10:20:54;;;;;;;2.58;1.00;;;23.50;99.90;;;;;;5011145;28;20077;-67
2022/09/04 10:23:44;;;;;;;1.88;1.58;;;23.60;99.90;;;;;;5024522;28;20511;-68
2022/09/04 10:26:19;;;;;;;8.20;1.50;;;23.70;99.90;;;;;;5023532;28;20076;-68
2022/09/04 10:29:12;;;;;;;3.83;1.10;;;23.60;99.90;;;;;;5025020;28;20041;-68
2022/09/04 10:31:56;;;;;;;2.22;1.27;;;23.60;99.90;;;;;;5024269;28;20142;-68
2022/09/04 10:34:55;;;;;;;7.03;1.13;;;23.40;99.90;;;;;;5007655;28;20056;-68
2022/09/04 10:37:47;;;;;;;1.50;1.00;;;23.40;99.90;;;;;;5023944;28;20045;-68
2022/09/04 10:40:39;;;;;;;3.05;1.10;;;23.60;99.90;;;;;;5013281;28;20056;-68
2022/09/04 10:43:35;;;;;;;4.43;1.10;;;24.00;99.90;;;;;;5040601;28;20099;-69
2022/09/04 10:46:28;;;;;;;1.75;1.02;;;24.20;99.90;;;;;;5023577;28;20045;-68
2022/09/04 10:49:00;;;;;;;1.70;1.60;;;24.40;99.90;;;;;;5024495;28;20037;-68
2022/09/04 10:51:34;;;;;;;1.55;1.17;;;24.50;99.90;;;;;;5025027;28;20052;-67
2022/09/04 10:54:34;;;;;;;4.20;1.52;;;24.40;99.90;;;;;;5025711;28;20049;-68
2022/09/04 10:57:22;;;;;;;3.72;1.30;;;24.40;99.90;;;;;;5007343;28;20045;-69
2022/09/04 11:00:21;;;;;;;5.55;1.45;;;24.20;99.90;;;;;;5023969;28;20053;-68
2022/09/04 11:03:13;;;;;;;3.72;1.58;;;24.20;99.90;;;;;;4989983;28;20137;-68
2022/09/04 11:06:11;;;;;;;2.28;1.15;;;24.20;99.90;;;;;;4994022;28;20568;-69
2022/09/04 11:09:04;;;;;;;1.38;1.27;;;24.20;99.90;;;;;;5024900;28;20057;-67
2022/09/04 11:11:59;;;;;;;3.15;1.23;;;24.30;99.90;;;;;;5039750;28;20042;-68
2022/09/04 11:14:52;;;;;;;1.90;1.10;;;24.50;99.90;;;;;;5023747;28;20045;-68
2022/09/04 11:17:36;;;;;;;2.35;1.27;;;24.70;99.90;;;;;;5023436;28;20132;-68
2022/09/04 11:20:24;;;;;;;4.03;3.40;;;24.70;99.90;;;;;;5040492;28;20052;-68
2022/09/04 11:23:29;;;;;;;3.58;1.25;;;24.80;99.90;;;;;;5037892;28;20049;-68
2022/09/04 11:26:27;;;;;;;5.38;2.00;;;24.70;99.90;;;;;;5038685;28;20033;-67
2022/09/04 11:28:55;;;;;;;4.80;2.30;;;25.00;99.90;;;;;;5023311;28;20041;-69
2022/09/04 11:31:33;;;;;;;3.42;1.40;;;25.00;99.90;;;;;;5023177;28;20060;-68
2022/09/04 11:34:12;;;;;;;1.90;1.10;;;25.10;99.90;;;;;;5023325;28;20234;-68
2022/09/04 11:37:16;;;;;;;5.00;1.45;;;24.90;99.90;;;;;;5024648;28;20053;-68
2022/09/04 11:40:02;;;;;;;5.13;1.33;;;24.80;99.90;;;;;;5024728;28;20172;-69
2022/09/04 11:43:17;;;;;;;2.83;1.30;;;25.00;99.90;;;;;;5022248;28;20067;-68
2022/09/04 11:46:05;;;;;;;3.30;1.60;;;25.30;99.90;;;;;;5009804;28;20092;-72
2022/09/04 11:48:49;;;;;;;2.05;1.67;;;25.30;99.90;;;;;;5018161;28;20065;-69
2022/09/04 11:51:52;;;;;;;1.42;0.93;;;25.20;99.90;;;;;;5018867;28;20120;-70
2022/09/04 11:54:39;;;;;;;3.10;1.00;;;25.00;99.90;;;;;;5017578;28;20053;-69
2022/09/04 11:57:20;;;;;;;1.63;1.25;;;24.90;99.90;;;;;;5022237;28;20053;-70
2022/09/04 11:59:54;;;;;;;2.83;1.23;;;24.90;99.90;;;;;;5023160;28;20046;-70
2022/09/04 12:02:35;;;;;;;3.65;1.30;;;24.90;99.90;;;;;;5021729;28;20068;-71
2022/09/04 12:05:38;;;;;;;1.73;1.20;;;24.90;99.90;;;;;;5023806;28;20327;-71
2022/09/04 12:08:34;;;;;;;2.15;1.40;;;25.00;99.90;;;;;;5025364;28;20088;-71
2022/09/04 12:11:00;;;;;;;6.15;1.95;;;25.20;99.90;;;;;;5023374;28;20049;-72
2022/09/04 12:13:46;;;;;;;2.70;1.48;;;25.40;99.90;;;;;;5024359;28;20050;-72
2022/09/04 12:16:41;;;;;;;1.50;1.40;;;25.70;99.90;;;;;;5023602;28;20084;-71
2022/09/04 12:19:26;;;;;;;2.60;1.10;;;25.50;99.90;;;;;;5023173;28;20424;-72
2022/09/04 12:21:58;;;;;;;6.75;1.10;;;25.60;99.90;;;;;;5038735;28;20041;-72
2022/09/04 12:25:11;;;;;;;1.63;1.27;;;25.80;99.90;;;;;;5022278;28;20084;-71
2022/09/04 12:27:54;;;;;;;2.63;1.20;;;25.70;99.90;;;;;;4986176;28;20054;-71
2022/09/04 12:30:22;;;;;;;1.27;1.17;;;25.90;99.90;;;;;;5021368;28;20046;-71
2022/09/04 12:33:19;;;;;;;4.22;1.38;;;26.10;99.90;;;;;;5022211;28;20040;-72
2022/09/04 12:36:13;;;;;;;5.30;1.25;;;26.00;99.90;;;;;;5024451;28;20532;-72
2022/09/04 12:38:59;;;;;;;5.93;1.75;;;25.80;99.90;;;;;;5024368;28;20088;-71
2022/09/04 12:41:48;;;;;;;9.88;5.22;;;25.60;99.90;;;;;;5021892;28;20079;-72
2022/09/04 12:44:51;;;;;;;2.58;1.75;;;25.70;99.90;;;;;;5020727;28;20485;-72
2022/09/04 12:47:17;;;;;;;5.28;4.20;;;25.80;99.90;;;;;;5023666;28;20045;-72
2022/09/04 12:50:26;;;;;;;4.15;3.15;;;25.90;99.90;;;;;;5024698;28;20071;-72
2022/09/04 12:53:13;;;;;;;1.63;1.40;;;26.10;99.90;;;;;;5004303;28;20094;-71
2022/09/04 12:56:06;;;;;;;1.30;1.20;;;26.20;99.90;;;;;;5011503;28;20041;-71
2022/09/04 12:58:32;;;;;;;2.28;1.08;;;26.20;99.90;;;;;;5025024;28;20160;-72
2022/09/04 13:01:43;;;;;;;2.72;1.17;;;26.00;99.90;;;;;;5021327;28;20045;-71
2022/09/04 13:04:29;;;;;;;3.42;1.42;;;26.00;99.90;;;;;;5021127;28;20057;-72
2022/09/04 13:07:42;;;;;;;2.88;1.13;;;26.10;99.90;;;;;;5024281;28;20050;-71
2022/09/04 13:10:07;;;;;;;4.20;1.20;;;26.10;99.90;;;;;;4931856;28;20053;-71
2022/09/04 13:12:41;;;;;;;2.85;1.38;;;26.00;99.90;;;;;;5012717;28;20140;-72
2022/09/04 13:15:10;;;;;;;5.13;1.27;;;25.80;99.90;;;;;;5026541;28;20033;-68
2022/09/04 13:18:02;;;;;;;3.43;1.03;;;26.20;99.90;;;;;;5007626;28;20408;-74
2022/09/04 13:20:52;;;;;;;2.05;1.75;;;26.40;99.90;;;;;;5025902;28;20045;-73
2022/09/04 13:23:24;;;;;;;3.70;1.40;;;26.20;99.90;;;;;;5016770;28;20080;-73
2022/09/04 13:26:29;;;;;;;7.30;1.50;;;26.20;99.90;;;;;;5023027;28;20041;-72
2022/09/04 13:29:07;;;;;;;2.88;1.23;;;26.30;99.90;;;;;;5019241;28;20057;-75
2022/09/04 13:31:42;;;;;;;4.60;1.52;;;26.20;99.90;;;;;;5008064;28;20053;-74
2022/09/04 13:34:16;;;;;;;2.33;1.23;;;26.20;99.90;;;;;;4995697;28;20696;-75
2022/09/04 13:36:56;;;;;;;2.80;1.20;;;26.20;99.90;;;;;;5011001;28;20051;-74
2022/09/04 13:39:30;;;;;;;1.70;1.40;;;26.10;99.90;;;;;;5010184;28;20093;-74
2022/09/04 13:42:22;;;;;;;8.15;1.40;;;26.20;99.90;;;;;;5022128;28;20107;-73
2022/09/04 13:45:18;;;;;;;0.93;0.93;;;26.00;99.90;;;;;;5010975;28;20060;-75
2022/09/04 13:47:48;;;;;;;3.05;1.25;;;25.90;99.90;;;;;;5006453;28;20051;-75
2022/09/04 13:50:28;;;;;;;3.60;1.52;;;26.00;99.90;;;;;;5016005;28;20037;-75
2022/09/04 13:53:04;;;;;;;2.10;1.52;;;25.90;99.90;;;;;;5022062;28;20061;-73
2022/09/04 13:55:45;;;;;;;3.67;1.35;;;25.90;99.90;;;;;;5026120;28;20060;-74
2022/09/04 13:58:18;;;;;;;12.23;2.67;;;26.10;99.90;;;;;;5008531;28;20124;-75
2022/09/04 14:01:08;;;;;;;2.45;1.40;;;26.40;99.90;;;;;;5025863;28;20051;-75
2022/09/04 14:03:43;;;;;;;;;;;26.50;99.90;;;;;;5006805;28;20049;-74
2022/09/04 14:06:13;;;;;;;1.17;1.08;;;26.50;99.90;;;;;;5009550;28;20020;-74
2022/09/04 14:08:42;;;;;;;2.13;1.30;;;26.50;99.90;;;;;;5041306;28;20437;-73
2022/09/04 14:11:22;;;;;;;1.20;1.10;;;26.50;99.90;;;;;;5024671;28;20176;-74
2022/09/04 14:14:18;;;;;;;1.30;1.20;;;26.40;99.90;;;;;;5024915;28;20045;-74
2022/09/04 14:16:44;;;;;;;2.80;1.30;;;26.40;99.90;;;;;;5014122;28;20038;-73
2022/09/04 14:19:31;;;;;;;2.42;1.65;;;26.30;99.90;;;;;;5006793;28;20455;-73
2022/09/04 14:22:16;;;;;;;3.63;1.45;;;26.60;99.90;;;;;;5004800;28;20412;-74
2022/09/04 14:25:03;;;;;;;4.88;1.25;;;26.50;99.90;;;;;;5006861;28;20052;-74
2022/09/04 14:27:50;;;;;;;2.15;1.23;;;26.60;99.90;;;;;;5020539;28;20056;-74
2022/09/04 14:30:21;;;;;;;3.25;1.75;;;26.70;99.90;;;;;;5024755;28;20124;-75